createdAt,value
2023-11-29T00:00:14.002Z,9.03
2023-11-29T00:03:15.750Z,8.73
2023-11-29T00:06:17.725Z,7.90
2023-11-29T00:09:19.895Z,7.80
2023-11-29T00:12:21.612Z,8.17
2023-11-29T00:15:24.315Z,13.57
2023-11-29T00:18:26.191Z,10.10
2023-11-29T00:21:29.196Z,14.00
2023-11-29T00:24:30.946Z,7.73
2023-11-29T00:27:32.996Z,9.93
2023-11-29T00:30:34.871Z,12.03
2023-11-29T00:33:36.785Z,16.10
2023-11-29T00:36:38.560Z,12.80
2023-11-29T00:39:40.733Z,11.53
2023-11-29T00:42:43.983Z,7.50
2023-11-29T00:45:47.191Z,14.07
2023-11-29T00:48:48.944Z,7.63
2023-11-29T00:51:50.880Z,10.37
2023-11-29T00:54:52.600Z,14.00
2023-11-29T00:57:54.324Z,10.40
2023-11-29T01:00:56.151Z,14.33
2023-11-29T01:04:01.109Z,13.30
2023-11-29T01:07:02.810Z,10.30
2023-11-29T01:10:06.053Z,10.43
2023-11-29T01:13:07.873Z,9.57
2023-11-29T01:16:09.652Z,10.07
2023-11-29T01:19:11.410Z,17.33
2023-11-29T01:22:13.177Z,7.97
2023-11-29T01:25:14.950Z,6.47
2023-11-29T01:28:16.695Z,12.07
2023-11-29T01:31:19.993Z,12.60
2023-11-29T01:37:52.354Z,12.80
2023-11-29T01:40:54.122Z,12.93
2023-11-29T01:47:27.191Z,8.67
2023-11-29T01:50:36.316Z,11.63
2023-11-29T01:53:40.058Z,11.53
2023-11-29T01:56:42.638Z,8.53
2023-11-29T01:59:44.447Z,11.03
2023-11-29T02:02:46.335Z,8.50
2023-11-29T02:05:48.753Z,12.50
2023-11-29T02:08:50.795Z,10.17
2023-11-29T02:11:55.295Z,12.20
2023-11-29T02:14:57.804Z,13.10
2023-11-29T02:17:59.806Z,11.50
2023-11-29T02:21:01.823Z,12.87
2023-11-29T02:24:06.804Z,13.00
2023-11-29T02:27:08.964Z,11.47
2023-11-29T02:30:11.326Z,8.90
2023-11-29T02:33:13.140Z,9.57
2023-11-29T02:36:15.068Z,10.07
2023-11-29T02:39:17.985Z,12.50
2023-11-29T02:42:21.179Z,10.20
2023-11-29T02:45:22.934Z,11.43
2023-11-29T02:48:24.846Z,10.87
2023-11-29T02:51:28.519Z,10.30
2023-11-29T02:54:30.521Z,13.30
2023-11-29T02:57:32.329Z,11.93
2023-11-29T03:00:34.207Z,11.33
2023-11-29T03:03:36.416Z,7.67
2023-11-29T03:06:38.152Z,13.53
2023-11-29T03:09:40.227Z,10.90
2023-11-29T03:12:41.968Z,11.60
2023-11-29T03:15:43.887Z,11.03
2023-11-29T03:18:45.661Z,12.23
2023-11-29T03:21:47.927Z,9.83
2023-11-29T03:24:49.770Z,11.73
2023-11-29T03:27:51.498Z,13.33
2023-11-29T03:30:55.338Z,7.47
2023-11-29T03:33:57.054Z,6.27
2023-11-29T03:36:58.818Z,8.23
2023-11-29T03:40:00.580Z,13.20
2023-11-29T03:50:11.304Z,7.10
2023-11-29T03:53:13.134Z,10.10
2023-11-29T03:56:14.936Z,9.97
2023-11-29T04:10:05.299Z,15.07
2023-11-29T04:13:11.189Z,12.57
2023-11-29T04:16:27.934Z,12.40
2023-11-29T04:19:29.901Z,14.47
2023-11-29T04:22:31.806Z,8.23
2023-11-29T04:25:33.520Z,12.63
2023-11-29T04:28:35.335Z,9.20
2023-11-29T04:31:38.672Z,9.00
2023-11-29T04:34:47.503Z,17.27
2023-11-29T04:41:28.392Z,10.67
2023-11-29T04:44:30.187Z,13.87
2023-11-29T04:51:09.251Z,12.07
2023-11-29T04:54:10.976Z,12.77
2023-11-29T05:04:00.289Z,11.53
2023-11-29T05:07:02.120Z,10.77
2023-11-29T05:10:04.193Z,26.43
2023-11-29T05:13:07.623Z,14.93
2023-11-29T05:26:42.398Z,13.00
2023-11-29T05:29:44.215Z,11.37
2023-11-29T05:32:47.289Z,10.93
2023-11-29T05:35:49.291Z,9.53
2023-11-29T05:38:51.089Z,11.10
2023-11-29T05:41:53.887Z,9.63
2023-11-29T05:51:50.317Z,11.27
2023-11-29T05:58:22.249Z,11.30
2023-11-29T06:01:24.009Z,14.67
2023-11-29T06:15:13.865Z,7.67
2023-11-29T06:21:46.233Z,11.67
2023-11-29T06:24:47.996Z,12.07
2023-11-29T06:27:49.954Z,12.33
2023-11-29T06:30:51.747Z,11.37
2023-11-29T06:33:56.365Z,9.87
2023-11-29T06:55:00.732Z,9.50
2023-11-29T07:05:05.639Z,11.17
2023-11-29T07:29:55.360Z,12.63
2023-11-29T07:47:01.314Z,8.23
2023-11-29T08:08:12.253Z,8.47
2023-11-29T08:11:14.221Z,7.47
2023-11-29T08:14:15.966Z,7.00
2023-11-29T08:17:17.962Z,5.70
2023-11-29T08:20:19.776Z,6.23
2023-11-29T08:23:21.679Z,12.07
2023-11-29T08:26:26.149Z,7.07
2023-11-29T08:29:28.364Z,6.33
2023-11-29T08:39:41.746Z,7.23
2023-11-29T08:42:43.648Z,9.00
2023-11-29T08:45:45.940Z,7.03
2023-11-29T08:48:47.734Z,6.87
2023-11-29T08:59:05.478Z,7.23
2023-11-29T09:12:40.243Z,4.43
2023-11-29T09:19:19.258Z,5.50
2023-11-29T09:22:22.588Z,7.63
2023-11-29T09:44:10.792Z,3.70
2023-11-29T09:47:12.654Z,10.43
2023-11-29T10:18:17.134Z,9.80
2023-11-29T10:21:20.436Z,4.73
2023-11-29T10:24:26.028Z,4.73
2023-11-29T10:27:27.749Z,4.27
2023-11-29T10:49:25.221Z,5.97
2023-11-29T10:52:27.368Z,5.40
2023-11-29T10:55:30.400Z,9.57
2023-11-29T10:58:39.656Z,5.97
2023-11-29T11:15:56.847Z,6.07
2023-11-29T11:22:45.412Z,6.73
2023-11-29T11:25:47.760Z,4.37
2023-11-29T11:39:42.710Z,2.87
2023-11-29T11:42:47.697Z,3.83
2023-11-29T11:45:51.325Z,7.00
2023-11-29T11:52:24.260Z,3.70
2023-11-29T11:55:29.613Z,3.30
2023-11-29T12:05:31.617Z,4.13
2023-11-29T12:34:00.157Z,4.43
2023-11-29T12:37:02.494Z,2.87
2023-11-29T12:40:05.501Z,3.97
2023-11-29T13:18:10.339Z,3.33
2023-11-29T13:21:12.313Z,3.50
2023-11-29T13:24:14.646Z,5.47
2023-11-29T13:27:17.247Z,2.93
2023-11-29T13:40:45.259Z,2.40
2023-11-29T13:43:46.999Z,2.10
2023-11-29T13:53:50.686Z,3.97
2023-11-29T14:18:40.813Z,3.00
2023-11-29T14:28:39.390Z,3.17
2023-11-29T14:31:41.316Z,8.10
2023-11-29T14:38:14.584Z,1.30
2023-11-29T15:06:43.791Z,6.60
2023-11-29T15:51:57.334Z,8.93
2023-11-29T15:54:59.077Z,6.10
2023-11-29T15:58:01.208Z,8.37
2023-11-29T16:01:02.994Z,5.33
2023-11-29T16:14:30.474Z,17.07
2023-11-29T16:35:42.811Z,15.90
2023-11-29T16:38:45.628Z,6.30
2023-11-29T16:41:47.384Z,8.40
2023-11-29T16:44:49.291Z,4.87
2023-11-29T16:47:52.178Z,7.47
2023-11-29T16:50:54.015Z,9.20
2023-11-29T16:53:55.781Z,6.20
2023-11-29T16:56:57.549Z,3.03
2023-11-29T16:59:59.277Z,5.63
2023-11-29T17:13:43.280Z,7.33
2023-11-29T17:20:22.564Z,8.37
2023-11-29T17:23:24.439Z,8.00
2023-11-29T17:26:26.136Z,10.80
2023-11-29T17:29:29.364Z,10.60
2023-11-29T17:43:24.263Z,9.60
2023-11-29T17:46:26.072Z,8.37
2023-11-29T18:00:23.009Z,8.23
2023-11-29T18:06:55.245Z,6.20
2023-11-29T18:20:54.935Z,7.50
2023-11-29T18:23:57.414Z,8.30
2023-11-29T18:49:27.166Z,13.10
2023-11-29T18:52:29.278Z,12.50
2023-11-29T18:55:32.455Z,7.53
2023-11-29T18:58:34.190Z,13.77
2023-11-29T19:05:13.430Z,11.37
2023-11-29T19:08:16.112Z,10.33
2023-11-29T19:11:18.111Z,9.10
2023-11-29T19:14:19.926Z,9.77
2023-11-29T19:21:09.791Z,9.37
2023-11-29T19:27:49.410Z,10.03
2023-11-29T19:34:40.602Z,12.43
2023-11-29T19:37:42.420Z,13.57
2023-11-29T19:40:44.190Z,15.87
2023-11-29T19:43:46.001Z,11.20
2023-11-29T19:46:49.055Z,12.50
2023-11-29T19:49:55.304Z,14.90
2023-11-29T19:52:58.245Z,15.47
2023-11-29T19:56:00.238Z,22.20
2023-11-29T19:59:04.101Z,14.90
2023-11-29T20:02:05.938Z,16.23
2023-11-29T20:05:08.059Z,17.57
2023-11-29T20:08:11.066Z,15.13
2023-11-29T20:11:13.804Z,12.10
2023-11-29T20:14:19.839Z,14.13
2023-11-29T20:17:27.286Z,11.30
2023-11-29T20:20:41.054Z,12.90
2023-11-29T20:23:52.609Z,12.77
2023-11-29T20:26:54.534Z,13.17
2023-11-29T20:29:58.512Z,11.90
2023-11-29T20:33:00.547Z,12.03
2023-11-29T20:43:44.170Z,14.43
2023-11-29T20:46:46.008Z,16.00
2023-11-29T20:49:47.803Z,15.23
2023-11-29T20:52:52.235Z,13.07
2023-11-29T20:59:26.385Z,19.77
2023-11-29T21:02:28.105Z,15.07
2023-11-29T21:09:14.331Z,10.67
2023-11-29T21:12:16.182Z,18.63
2023-11-29T21:15:18.956Z,16.33
2023-11-29T21:18:20.905Z,23.73
2023-11-29T21:21:22.768Z,24.23
2023-11-29T21:24:25.365Z,15.97
2023-11-29T21:27:27.329Z,23.67
2023-11-29T21:30:29.169Z,17.37
2023-11-29T21:33:31.115Z,17.13
2023-11-29T21:36:32.928Z,17.73
2023-11-29T21:39:35.822Z,15.27
2023-11-29T21:42:37.547Z,21.17
2023-11-29T21:45:39.279Z,17.20
2023-11-29T21:48:44.328Z,25.57
2023-11-29T21:51:46.110Z,29.53
2023-11-29T21:54:47.850Z,17.93
2023-11-29T21:57:50.209Z,20.40
2023-11-29T22:00:51.940Z,25.77
2023-11-29T22:03:53.763Z,22.97
2023-11-29T22:06:55.548Z,19.20
2023-11-29T22:09:57.310Z,17.73
2023-11-29T22:12:59.358Z,21.80
2023-11-29T22:16:01.104Z,35.00
2023-11-29T22:19:02.940Z,20.53
2023-11-29T22:22:04.872Z,25.63
2023-11-29T22:25:06.932Z,31.07
2023-11-29T22:28:08.710Z,32.33
2023-11-29T22:31:11.848Z,22.10
2023-11-29T22:34:13.721Z,20.10
2023-11-29T22:37:15.440Z,22.73
2023-11-29T22:40:17.164Z,28.80
2023-11-29T22:43:18.858Z,24.17
2023-11-29T22:46:22.016Z,26.13
2023-11-29T22:49:23.844Z,45.07
2023-11-29T22:52:25.605Z,28.73
2023-11-29T22:55:27.334Z,30.70
2023-11-29T22:58:29.187Z,20.73
2023-11-29T23:01:32.641Z,39.87
2023-11-29T23:04:34.483Z,32.43
2023-11-29T23:07:36.193Z,19.00
2023-11-29T23:10:37.965Z,20.30
2023-11-29T23:13:39.717Z,27.13
2023-11-29T23:16:41.487Z,17.30
2023-11-29T23:19:43.234Z,27.83
2023-11-29T23:22:44.969Z,45.73
2023-11-29T23:25:46.697Z,32.10
2023-11-29T23:28:48.403Z,14.13
2023-11-29T23:31:50.142Z,14.57
2023-11-29T23:34:51.915Z,43.43
2023-11-29T23:37:53.683Z,17.67
2023-11-29T23:40:55.400Z,17.23
2023-11-29T23:43:57.157Z,12.57
2023-11-29T23:46:58.906Z,27.03
2023-11-29T23:50:00.775Z,24.57
2023-11-29T23:53:02.521Z,35.57
2023-11-29T23:56:04.539Z,30.90
2023-11-29T23:59:06.253Z,26.90
